createdAt,value
2017-10-05T00:02:04.028Z,8.87
2017-10-05T00:04:38.190Z,8.83
2017-10-05T00:07:11.846Z,3.63
2017-10-05T00:09:45.603Z,6.73
2017-10-05T00:12:19.541Z,4.37
2017-10-05T00:14:53.436Z,6.57
2017-10-05T00:17:27.618Z,8.30
2017-10-05T00:20:02.221Z,4.13
2017-10-05T00:22:36.352Z,5.47
2017-10-05T00:25:10.252Z,9.47
2017-10-05T00:30:24.714Z,5.37
2017-10-05T00:32:58.386Z,5.27
2017-10-05T00:35:32.928Z,4.53
2017-10-05T00:38:06.748Z,4.83
2017-10-05T00:40:40.536Z,5.07
2017-10-05T00:43:14.401Z,5.00
2017-10-05T00:45:48.747Z,3.50
2017-10-05T00:48:23.122Z,3.57
2017-10-05T00:50:57.098Z,4.10
2017-10-05T00:53:31.032Z,4.67
2017-10-05T00:56:04.780Z,7.93
2017-10-05T00:58:39.431Z,3.57
2017-10-05T01:01:13.376Z,3.77
2017-10-05T01:03:47.029Z,4.70
2017-10-05T01:06:21.448Z,2.83
2017-10-05T01:08:55.421Z,9.93
2017-10-05T01:11:30.124Z,4.93
2017-10-05T01:14:04.244Z,5.63
2017-10-05T01:16:37.863Z,5.30
2017-10-05T01:19:12.370Z,3.83
2017-10-05T01:21:46.560Z,2.50
2017-10-05T01:24:20.374Z,3.73
2017-10-05T01:26:54.079Z,3.10
2017-10-05T01:29:27.858Z,4.60
2017-10-05T01:32:01.651Z,4.03
2017-10-05T01:34:36.192Z,11.97
2017-10-05T01:37:10.040Z,5.07
2017-10-05T01:39:43.908Z,2.77
2017-10-05T01:42:17.686Z,2.50
2017-10-05T01:44:52.416Z,4.10
2017-10-05T01:47:27.400Z,5.73
2017-10-05T01:50:02.187Z,2.17
2017-10-05T01:52:36.365Z,3.70
2017-10-05T01:55:10.929Z,5.03
2017-10-05T01:57:44.980Z,3.50
2017-10-05T02:00:19.165Z,4.43
2017-10-05T02:02:53.677Z,4.27
2017-10-05T02:05:27.708Z,2.97
2017-10-05T02:08:01.398Z,4.20
2017-10-05T02:10:35.894Z,4.67
2017-10-05T02:13:09.979Z,3.93
2017-10-05T02:15:43.594Z,3.73
2017-10-05T02:18:17.294Z,1.77
2017-10-05T02:20:51.112Z,3.03
2017-10-05T02:23:25.055Z,2.40
2017-10-05T02:25:59.586Z,2.70
2017-10-05T02:28:34.302Z,3.10
2017-10-05T02:31:08.322Z,9.43
2017-10-05T02:33:43.130Z,6.50
2017-10-05T02:36:17.701Z,3.47
2017-10-05T02:38:51.493Z,2.50
2017-10-05T02:41:25.180Z,2.70
2017-10-05T02:43:58.890Z,2.20
2017-10-05T02:46:33.589Z,5.40
2017-10-05T02:49:07.726Z,3.63
2017-10-05T02:51:42.240Z,2.70
2017-10-05T02:54:15.994Z,3.13
2017-10-05T02:56:50.552Z,2.37
2017-10-05T02:59:24.728Z,2.03
2017-10-05T03:01:58.373Z,4.30
2017-10-05T03:04:31.937Z,7.97
2017-10-05T03:07:05.788Z,3.63
2017-10-05T03:09:40.305Z,3.30
2017-10-05T03:12:15.132Z,8.97
2017-10-05T03:14:49.862Z,3.30
2017-10-05T03:17:24.572Z,2.23
2017-10-05T03:19:59.428Z,2.67
2017-10-05T03:22:34.216Z,1.90
2017-10-05T03:25:09.393Z,2.57
2017-10-05T03:27:43.244Z,2.47
2017-10-05T03:30:16.896Z,2.13
2017-10-05T03:32:50.653Z,3.07
2017-10-05T03:35:24.342Z,6.43
2017-10-05T03:37:58.200Z,3.27
2017-10-05T03:40:33.430Z,1.73
2017-10-05T03:43:07.596Z,3.27
2017-10-05T03:45:42.373Z,4.13
2017-10-05T03:48:17.217Z,3.97
2017-10-05T03:50:51.226Z,13.03
2017-10-05T03:53:24.901Z,3.00
2017-10-05T03:55:59.442Z,5.47
2017-10-05T03:58:33.697Z,2.70
2017-10-05T04:01:07.950Z,3.63
2017-10-05T04:03:42.577Z,7.97
2017-10-05T04:06:17.151Z,6.53
2017-10-05T04:08:52.080Z,3.50
2017-10-05T04:11:25.909Z,5.80
2017-10-05T04:13:59.831Z,12.20
2017-10-05T04:16:33.552Z,4.10
2017-10-05T04:19:07.213Z,7.23
2017-10-05T04:21:41.802Z,3.80
2017-10-05T04:24:15.787Z,10.37
2017-10-05T04:26:50.518Z,11.33
2017-10-05T04:29:24.557Z,7.83
2017-10-05T04:31:58.304Z,2.57
2017-10-05T04:34:32.402Z,7.30
2017-10-05T04:37:06.323Z,5.33
2017-10-05T04:39:40.084Z,8.43
2017-10-05T04:42:13.664Z,5.67
2017-10-05T04:44:47.636Z,6.60
2017-10-05T04:47:22.285Z,5.27
2017-10-05T04:49:56.528Z,3.30
2017-10-05T04:52:30.249Z,4.73
2017-10-05T04:55:03.974Z,3.60
2017-10-05T04:57:38.448Z,7.20
2017-10-05T05:00:13.409Z,2.30
2017-10-05T05:02:47.424Z,2.33
2017-10-05T05:05:21.633Z,3.13
2017-10-05T05:07:55.559Z,5.83
2017-10-05T05:10:29.228Z,3.30
2017-10-05T05:13:04.248Z,4.00
2017-10-05T05:15:38.156Z,7.77
2017-10-05T05:18:13.008Z,9.03
2017-10-05T05:20:47.127Z,2.60
2017-10-05T05:23:21.032Z,4.57
2017-10-05T05:25:54.905Z,9.03
2017-10-05T05:28:30.467Z,7.07
2017-10-05T05:31:06.405Z,14.60
2017-10-05T05:33:41.058Z,10.00
2017-10-05T05:36:15.818Z,13.90
2017-10-05T05:38:49.984Z,14.13
2017-10-05T05:41:23.982Z,13.20
2017-10-05T05:43:58.597Z,16.53
2017-10-05T05:46:32.857Z,5.83
2017-10-05T05:49:07.281Z,7.63
2017-10-05T05:51:41.413Z,5.80
2017-10-05T05:54:16.108Z,4.00
2017-10-05T05:56:50.141Z,5.60
2017-10-05T05:59:24.064Z,4.83
2017-10-05T06:01:58.623Z,7.33
2017-10-05T06:04:32.701Z,5.93
2017-10-05T06:07:06.539Z,14.10
2017-10-05T06:09:40.682Z,5.70
2017-10-05T06:12:15.098Z,2.70
2017-10-05T06:14:49.146Z,8.20
2017-10-05T06:17:23.665Z,7.23
2017-10-05T06:19:58.524Z,4.87
2017-10-05T06:22:32.896Z,4.83
2017-10-05T06:25:06.828Z,3.73
2017-10-05T06:27:40.685Z,4.40
2017-10-05T06:30:14.314Z,2.80
2017-10-05T06:32:48.638Z,3.63
2017-10-05T06:35:22.453Z,12.57
2017-10-05T06:37:56.251Z,15.60
2017-10-05T06:40:30.045Z,13.93
2017-10-05T06:43:03.842Z,5.33
2017-10-05T06:45:37.633Z,5.87
2017-10-05T06:48:12.127Z,7.27
2017-10-05T06:50:46.257Z,7.70
2017-10-05T06:53:20.016Z,11.40
2017-10-05T06:55:53.878Z,22.00
2017-10-05T06:58:27.823Z,11.40
2017-10-05T07:01:02.413Z,10.10
2017-10-05T07:03:36.454Z,28.67
2017-10-05T07:06:11.137Z,31.77
2017-10-05T07:08:45.762Z,11.50
2017-10-05T07:11:19.690Z,14.97
2017-10-05T07:13:53.544Z,6.10
2017-10-05T07:16:27.432Z,7.13
2017-10-05T07:19:02.308Z,10.03
2017-10-05T07:21:37.240Z,7.90
2017-10-05T07:24:11.213Z,8.23
2017-10-05T07:26:44.831Z,2.33
2017-10-05T07:29:18.608Z,4.90
2017-10-05T07:31:52.376Z,14.53
2017-10-05T07:34:26.901Z,4.53
2017-10-05T07:37:01.599Z,15.83
2017-10-05T07:39:35.769Z,5.90
2017-10-05T07:42:09.574Z,5.97
2017-10-05T07:44:44.254Z,3.97
2017-10-05T07:47:18.590Z,2.43
2017-10-05T07:49:53.077Z,5.33
2017-10-05T07:52:27.110Z,5.13
2017-10-05T07:55:00.830Z,3.00
2017-10-05T07:57:34.772Z,9.27
2017-10-05T08:00:08.769Z,14.30
2017-10-05T08:02:42.573Z,3.50
2017-10-05T08:05:17.138Z,6.47
2017-10-05T08:07:51.601Z,8.00
2017-10-05T08:10:25.396Z,9.30
2017-10-05T08:12:59.112Z,18.50
2017-10-05T08:15:34.433Z,21.90
2017-10-05T08:18:08.453Z,56.67
2017-10-05T08:20:42.170Z,43.70
2017-10-05T08:23:16.164Z,37.43
2017-10-05T08:25:49.820Z,41.17
2017-10-05T08:28:23.454Z,39.43
2017-10-05T08:30:58.003Z,52.87
2017-10-05T08:33:32.781Z,51.17
2017-10-05T08:36:06.816Z,55.30
2017-10-05T08:38:41.369Z,50.40
2017-10-05T08:41:16.473Z,45.30
2017-10-05T08:43:50.433Z,44.07
2017-10-05T08:46:24.170Z,41.97
2017-10-05T08:48:58.243Z,29.30
2017-10-05T08:51:33.444Z,28.30
2017-10-05T08:54:07.752Z,18.70
2017-10-05T08:56:41.524Z,16.80
2017-10-05T08:59:15.493Z,15.70
2017-10-05T09:01:49.896Z,22.43
2017-10-05T09:04:25.197Z,11.60
2017-10-05T09:06:59.800Z,13.83
2017-10-05T09:09:34.361Z,5.03
2017-10-05T09:12:09.265Z,6.17
2017-10-05T09:14:44.125Z,4.63
2017-10-05T09:17:18.987Z,3.57
2017-10-05T09:19:54.325Z,5.13
2017-10-05T09:22:28.598Z,4.47
2017-10-05T09:25:02.411Z,3.63
2017-10-05T09:27:37.036Z,6.10
2017-10-05T09:30:11.182Z,2.80
2017-10-05T09:32:45.709Z,3.30
2017-10-05T09:35:19.647Z,2.97
2017-10-05T09:37:53.378Z,3.10
2017-10-05T09:40:27.327Z,3.60
2017-10-05T09:43:01.925Z,4.80
2017-10-05T09:45:35.950Z,1.93
2017-10-05T09:48:10.550Z,4.43
2017-10-05T09:50:44.523Z,3.93
2017-10-05T09:53:19.190Z,7.83
2017-10-05T09:55:53.533Z,4.13
2017-10-05T09:58:28.144Z,3.53
2017-10-05T10:01:02.171Z,3.93
2017-10-05T10:03:35.845Z,9.00
2017-10-05T10:06:09.620Z,2.37
2017-10-05T10:08:44.070Z,4.93
2017-10-05T10:11:17.989Z,9.27
2017-10-05T10:13:51.708Z,3.07
2017-10-05T10:16:26.631Z,5.70
2017-10-05T10:19:00.345Z,4.00
2017-10-05T10:21:34.428Z,7.60
2017-10-05T10:24:08.141Z,5.80
2017-10-05T10:26:41.866Z,3.90
2017-10-05T10:29:15.430Z,2.30
2017-10-05T10:31:49.324Z,7.73
2017-10-05T10:34:23.261Z,2.43
2017-10-05T10:36:57.174Z,11.67
2017-10-05T10:39:31.813Z,2.90
2017-10-05T10:42:05.904Z,3.67
2017-10-05T10:44:39.615Z,4.57
2017-10-05T10:47:14.107Z,5.90
2017-10-05T10:49:48.342Z,9.33
2017-10-05T10:52:21.946Z,7.50
2017-10-05T10:54:55.780Z,6.53
2017-10-05T10:57:29.564Z,10.63
2017-10-05T11:00:04.596Z,7.50
2017-10-05T11:02:38.640Z,4.80
2017-10-05T11:05:12.306Z,5.50
2017-10-05T11:07:46.697Z,11.30
2017-10-05T11:10:20.737Z,13.90
2017-10-05T11:12:55.355Z,7.77
2017-10-05T11:15:29.400Z,7.50
2017-10-05T11:18:03.089Z,12.57
2017-10-05T11:20:36.929Z,6.20
2017-10-05T11:23:10.811Z,11.10
2017-10-05T11:25:44.587Z,6.60
2017-10-05T11:28:19.101Z,3.67
2017-10-05T11:30:53.304Z,4.23
2017-10-05T11:33:27.740Z,8.93
2017-10-05T11:36:02.664Z,8.40
2017-10-05T11:38:36.721Z,4.67
2017-10-05T11:41:11.190Z,8.63
2017-10-05T11:43:45.399Z,14.93
2017-10-05T11:46:19.390Z,7.03
2017-10-05T11:48:54.054Z,17.33
2017-10-05T11:51:28.194Z,9.47
2017-10-05T11:54:02.201Z,6.50
2017-10-05T11:56:35.837Z,6.63
2017-10-05T11:59:10.422Z,14.13
2017-10-05T12:01:45.746Z,6.47
2017-10-05T12:04:19.828Z,19.17
2017-10-05T12:06:53.552Z,6.20
2017-10-05T12:09:27.320Z,15.30
2017-10-05T12:12:01.989Z,27.73
2017-10-05T12:14:36.030Z,15.97
2017-10-05T12:17:09.807Z,9.57
2017-10-05T12:19:43.729Z,6.70
2017-10-05T12:22:17.820Z,6.80
2017-10-05T12:24:51.456Z,5.40
2017-10-05T12:27:26.149Z,11.70
2017-10-05T12:30:00.089Z,14.83
2017-10-05T12:32:34.209Z,8.50
2017-10-05T12:35:08.960Z,3.53
2017-10-05T12:37:43.197Z,10.93
2017-10-05T12:40:17.056Z,5.10
2017-10-05T12:42:51.746Z,7.73
2017-10-05T12:45:25.864Z,11.77
2017-10-05T12:47:59.694Z,6.60
2017-10-05T12:50:34.065Z,12.03
2017-10-05T12:53:08.375Z,6.93
2017-10-05T12:55:42.329Z,4.70
2017-10-05T12:58:16.021Z,8.77
2017-10-05T13:00:49.945Z,10.70
2017-10-05T13:03:23.856Z,7.83
2017-10-05T13:05:58.378Z,8.40
2017-10-05T13:08:32.067Z,13.03
2017-10-05T13:11:05.941Z,7.80
2017-10-05T13:13:39.701Z,7.20
2017-10-05T13:16:14.161Z,8.03
2017-10-05T13:18:48.316Z,6.23
2017-10-05T13:21:22.091Z,5.67
2017-10-05T13:23:55.932Z,7.13
2017-10-05T13:26:29.966Z,5.73
2017-10-05T13:29:03.865Z,7.70
2017-10-05T13:31:37.788Z,12.03
2017-10-05T13:34:12.456Z,7.37
2017-10-05T13:36:46.715Z,6.90
2017-10-05T13:39:21.280Z,4.50
2017-10-05T13:41:55.232Z,7.07
2017-10-05T13:44:29.728Z,7.93
2017-10-05T13:47:04.102Z,13.57
2017-10-05T13:49:39.442Z,45.37
2017-10-05T13:52:14.416Z,50.47
2017-10-05T13:54:48.608Z,53.27
2017-10-05T13:57:22.293Z,76.97
2017-10-05T13:59:57.085Z,101.07
2017-10-05T14:02:31.195Z,122.67
2017-10-05T14:05:05.250Z,165.93
2017-10-05T14:07:39.729Z,136.03
2017-10-05T14:10:13.877Z,183.00
2017-10-05T14:12:48.566Z,196.50
2017-10-05T14:15:23.592Z,212.30
2017-10-05T14:17:58.630Z,177.67
2017-10-05T14:20:32.669Z,174.93
2017-10-05T14:23:07.255Z,177.23
2017-10-05T14:25:41.333Z,150.20
2017-10-05T14:28:15.968Z,130.53
2017-10-05T14:30:50.929Z,147.43
2017-10-05T14:33:25.182Z,125.20
2017-10-05T14:35:59.660Z,114.67
2017-10-05T14:38:34.389Z,140.23
2017-10-05T14:41:08.455Z,108.67
2017-10-05T14:43:43.052Z,85.53
2017-10-05T14:46:17.030Z,91.10
2017-10-05T14:48:50.714Z,94.67
2017-10-05T14:51:24.372Z,91.40
2017-10-05T14:53:59.140Z,82.60
2017-10-05T14:56:33.287Z,71.30
2017-10-05T14:59:07.892Z,69.40
2017-10-05T15:01:42.552Z,74.20
2017-10-05T15:04:17.294Z,67.33
2017-10-05T15:06:51.374Z,66.20
2017-10-05T15:09:25.908Z,61.97
2017-10-05T15:11:59.836Z,68.33
2017-10-05T15:14:33.718Z,63.27
2017-10-05T15:17:07.530Z,63.40
2017-10-05T15:19:42.829Z,48.30
2017-10-05T15:22:16.837Z,52.03
2017-10-05T15:24:51.508Z,36.93
2017-10-05T15:27:25.303Z,51.50
2017-10-05T15:29:59.929Z,41.50
2017-10-05T15:32:33.640Z,44.10
2017-10-05T15:35:07.473Z,46.33
2017-10-05T15:37:42.221Z,36.97
2017-10-05T15:40:16.093Z,41.50
2017-10-05T15:42:50.057Z,35.87
2017-10-05T15:45:24.143Z,29.90
2017-10-05T15:47:58.105Z,35.60
2017-10-05T15:50:32.576Z,33.63
2017-10-05T15:53:07.124Z,28.20
2017-10-05T15:55:42.761Z,23.13
2017-10-05T15:58:17.120Z,28.60
2017-10-05T16:00:50.853Z,32.00
2017-10-05T16:03:25.440Z,28.50
2017-10-05T16:05:59.225Z,24.80
2017-10-05T16:08:33.872Z,24.20
2017-10-05T16:11:07.917Z,30.43
2017-10-05T16:13:41.734Z,32.13
2017-10-05T16:16:15.629Z,28.20
2017-10-05T16:18:49.444Z,27.43
2017-10-05T16:21:23.236Z,34.23
2017-10-05T16:23:57.966Z,24.67
2017-10-05T16:26:32.525Z,23.77
2017-10-05T16:29:06.591Z,21.57
2017-10-05T16:31:41.050Z,23.43
2017-10-05T16:34:15.201Z,21.07
2017-10-05T16:36:49.889Z,20.00
2017-10-05T16:39:23.939Z,17.83
2017-10-05T16:41:58.563Z,19.67
2017-10-05T16:44:32.395Z,17.40
2017-10-05T16:47:06.968Z,18.00
2017-10-05T16:49:41.385Z,17.57
2017-10-05T16:52:15.400Z,14.70
2017-10-05T16:54:50.209Z,17.13
2017-10-05T16:57:24.347Z,18.13
2017-10-05T16:59:59.771Z,20.03
2017-10-05T17:02:33.936Z,20.50
2017-10-05T17:05:08.409Z,17.33
2017-10-05T17:07:42.361Z,17.23
2017-10-05T17:10:16.161Z,21.80
2017-10-05T17:12:49.893Z,23.87
2017-10-05T17:15:23.653Z,22.80
2017-10-05T17:17:57.653Z,23.50
2017-10-05T17:20:31.261Z,20.30
2017-10-05T17:23:05.880Z,22.10
2017-10-05T17:25:39.757Z,22.57
2017-10-05T17:28:13.418Z,46.80
2017-10-05T17:30:47.282Z,15.50
2017-10-05T17:33:21.850Z,19.90
2017-10-05T17:35:56.212Z,27.60
2017-10-05T17:38:30.180Z,22.00
2017-10-05T17:41:04.001Z,28.60
2017-10-05T17:43:38.440Z,21.73
2017-10-05T17:46:13.518Z,16.23
2017-10-05T17:48:48.218Z,25.10
2017-10-05T17:51:22.369Z,27.87
2017-10-05T17:53:56.764Z,22.43
2017-10-05T17:56:30.847Z,18.83
2017-10-05T17:59:05.284Z,20.50
2017-10-05T18:01:39.443Z,24.77
2017-10-05T18:04:13.321Z,19.47
2017-10-05T18:06:47.163Z,20.13
2017-10-05T18:09:21.691Z,18.07
2017-10-05T18:11:55.693Z,16.10
2017-10-05T18:14:29.377Z,20.63
2017-10-05T18:17:02.980Z,15.50
2017-10-05T18:19:36.812Z,23.23
2017-10-05T18:22:11.150Z,26.40
2017-10-05T18:24:45.905Z,17.43
2017-10-05T18:27:19.955Z,32.27
2017-10-05T18:29:53.649Z,14.83
2017-10-05T18:32:27.346Z,14.67
2017-10-05T18:35:01.939Z,20.83
2017-10-05T18:37:36.552Z,16.10
2017-10-05T18:40:10.606Z,32.87
2017-10-05T18:42:44.383Z,22.07
2017-10-05T18:45:18.377Z,14.40
2017-10-05T18:47:52.236Z,19.23
2017-10-05T18:50:25.884Z,21.63
2017-10-05T18:52:59.642Z,18.30
2017-10-05T18:55:34.228Z,13.13
2017-10-05T18:58:08.209Z,15.83
2017-10-05T19:00:41.963Z,14.47
2017-10-05T19:03:15.712Z,13.37
2017-10-05T19:05:49.510Z,10.10
2017-10-05T19:08:24.184Z,23.07
2017-10-05T19:10:58.246Z,19.50
2017-10-05T19:13:32.020Z,12.00
2017-10-05T19:16:05.897Z,14.53
2017-10-05T19:18:40.313Z,19.57
2017-10-05T19:21:14.453Z,22.80
2017-10-05T19:23:49.172Z,25.27
2017-10-05T19:26:23.326Z,10.83
2017-10-05T19:28:57.319Z,9.67
2017-10-05T19:31:31.435Z,14.40
2017-10-05T19:34:05.874Z,18.23
2017-10-05T19:36:40.550Z,12.70
2017-10-05T19:39:14.428Z,14.60
2017-10-05T19:41:48.187Z,10.67
2017-10-05T19:44:22.129Z,12.43
2017-10-05T19:46:56.005Z,10.23
2017-10-05T19:49:30.600Z,19.23
2017-10-05T19:52:04.709Z,20.70
2017-10-05T19:54:38.494Z,19.13
2017-10-05T19:57:12.370Z,17.43
2017-10-05T19:59:47.049Z,37.00
2017-10-05T20:02:21.150Z,41.80
2017-10-05T20:04:55.083Z,58.13
2017-10-05T20:07:29.795Z,57.97
2017-10-05T20:10:03.778Z,66.90
2017-10-05T20:12:38.511Z,85.27
2017-10-05T20:15:13.210Z,66.50
2017-10-05T20:17:50.181Z,64.67
2017-10-05T20:20:41.478Z,82.73
2017-10-05T20:23:30.826Z,87.00
2017-10-05T20:26:07.199Z,67.43
2017-10-05T20:28:44.356Z,71.97
2017-10-05T20:31:21.586Z,85.23
2017-10-05T20:33:55.649Z,70.83
2017-10-05T20:36:29.693Z,62.33
2017-10-05T20:39:04.499Z,58.70
2017-10-05T20:41:38.599Z,69.90
2017-10-05T20:44:12.446Z,64.43
2017-10-05T20:46:46.327Z,58.57
2017-10-05T20:49:20.855Z,61.30
2017-10-05T20:51:54.711Z,53.60
2017-10-05T20:54:28.581Z,69.70
2017-10-05T20:57:02.347Z,83.97
2017-10-05T20:59:37.518Z,89.30
2017-10-05T21:02:12.497Z,102.27
2017-10-05T21:04:46.350Z,83.97
2017-10-05T21:07:19.965Z,91.27
2017-10-05T21:09:54.066Z,9.47
2017-10-05T21:12:27.969Z,57.17
2017-10-05T21:15:01.899Z,64.10
2017-10-05T21:17:36.682Z,56.73
2017-10-05T21:20:10.709Z,50.17
2017-10-05T21:22:45.235Z,68.73
2017-10-05T21:25:19.943Z,55.03
2017-10-05T21:27:54.762Z,45.70
2017-10-05T21:30:28.599Z,63.03
2017-10-05T21:33:02.225Z,46.37
2017-10-05T21:35:36.729Z,48.03
2017-10-05T21:38:10.748Z,38.53
2017-10-05T21:40:45.346Z,34.33
2017-10-05T21:43:19.604Z,38.67
2017-10-05T21:45:53.665Z,40.63
2017-10-05T21:48:28.328Z,41.40
2017-10-05T21:51:03.658Z,36.03
2017-10-05T21:53:37.442Z,37.17
2017-10-05T21:56:11.201Z,36.40
2017-10-05T21:58:46.515Z,27.77
2017-10-05T22:01:21.287Z,32.53
2017-10-05T22:03:55.414Z,29.80
2017-10-05T22:06:29.299Z,36.50
2017-10-05T22:09:03.208Z,42.60
2017-10-05T22:11:37.691Z,30.07
2017-10-05T22:14:11.716Z,32.50
2017-10-05T22:16:45.910Z,26.03
2017-10-05T22:19:19.747Z,35.47
2017-10-05T22:21:54.372Z,31.53
2017-10-05T22:24:28.239Z,25.50
2017-10-05T22:27:02.218Z,25.50
2017-10-05T22:29:35.859Z,27.83
2017-10-05T22:32:09.824Z,25.93
2017-10-05T22:34:44.392Z,27.83
2017-10-05T22:37:18.554Z,30.53
2017-10-05T22:39:53.193Z,39.20
2017-10-05T22:42:27.222Z,25.53
2017-10-05T22:45:01.150Z,25.50
2017-10-05T22:47:34.920Z,24.73
2017-10-05T22:50:08.755Z,26.10
2017-10-05T22:52:44.211Z,31.23
2017-10-05T22:55:18.242Z,21.27
2017-10-05T22:57:52.158Z,18.13
2017-10-05T23:00:26.798Z,24.93
2017-10-05T23:03:00.775Z,23.00
2017-10-05T23:05:34.692Z,26.90
2017-10-05T23:08:10.001Z,21.63
2017-10-05T23:10:44.459Z,24.00
2017-10-05T23:13:18.267Z,23.20
2017-10-05T23:15:51.991Z,24.60
2017-10-05T23:18:25.819Z,21.53
2017-10-05T23:21:00.484Z,20.47
2017-10-05T23:23:34.818Z,18.00
2017-10-05T23:26:08.852Z,28.23
2017-10-05T23:28:42.581Z,17.13
2017-10-05T23:31:17.235Z,14.07
2017-10-05T23:33:51.374Z,16.43
2017-10-05T23:36:25.848Z,19.63
2017-10-05T23:39:00.788Z,16.50
2017-10-05T23:41:35.667Z,23.57
2017-10-05T23:44:09.772Z,11.57
2017-10-05T23:46:43.532Z,22.43
2017-10-05T23:49:17.354Z,23.10
2017-10-05T23:51:51.739Z,16.83
2017-10-05T23:54:25.740Z,17.10
2017-10-05T23:57:00.291Z,23.37
2017-10-05T23:59:34.398Z,19.87
